sensor_id;sensor_type;location;lat;lon;timestamp;P1;durP1;ratioP1;P2;durP2;ratioP2
7845;SDS011;3968;51.424;6.788;2022-10-16T00:01:24;10.70;;;6.10;;
7845;SDS011;3968;51.424;6.788;2022-10-16T00:03:51;8.87;;;5.90;;
7845;SDS011;3968;51.424;6.788;2022-10-16T00:06:18;9.07;;;5.90;;
7845;SDS011;3968;51.424;6.788;2022-10-16T00:08:45;8.97;;;5.73;;
7845;SDS011;3968;51.424;6.788;2022-10-16T00:11:12;8.57;;;5.63;;
7845;SDS011;3968;51.424;6.788;2022-10-16T00:13:40;9.13;;;5.97;;
7845;SDS011;3968;51.424;6.788;2022-10-16T00:16:07;10.57;;;6.20;;
7845;SDS011;3968;51.424;6.788;2022-10-16T00:18:34;8.60;;;6.10;;
7845;SDS011;3968;51.424;6.788;2022-10-16T00:21:04;10.93;;;6.30;;
7845;SDS011;3968;51.424;6.788;2022-10-16T00:23:31;13.20;;;6.07;;
7845;SDS011;3968;51.424;6.788;2022-10-16T00:25:58;12.73;;;6.07;;
7845;SDS011;3968;51.424;6.788;2022-10-16T00:28:25;10.47;;;5.80;;
7845;SDS011;3968;51.424;6.788;2022-10-16T00:30:51;9.00;;;5.63;;
7845;SDS011;3968;51.424;6.788;2022-10-16T00:33:17;9.33;;;5.57;;
7845;SDS011;3968;51.424;6.788;2022-10-16T00:35:43;12.70;;;6.37;;
7845;SDS011;3968;51.424;6.788;2022-10-16T00:38:09;10.80;;;6.00;;
7845;SDS011;3968;51.424;6.788;2022-10-16T00:40:34;10.80;;;6.63;;
7845;SDS011;3968;51.424;6.788;2022-10-16T00:43:00;9.90;;;5.63;;
7845;SDS011;3968;51.424;6.788;2022-10-16T00:45:26;8.90;;;6.30;;
7845;SDS011;3968;51.424;6.788;2022-10-16T00:47:52;9.53;;;6.37;;
7845;SDS011;3968;51.424;6.788;2022-10-16T00:52:51;12.53;;;6.50;;
7845;SDS011;3968;51.424;6.788;2022-10-16T00:55:18;9.20;;;6.37;;
7845;SDS011;3968;51.424;6.788;2022-10-16T00:57:44;8.67;;;6.53;;
7845;SDS011;3968;51.424;6.788;2022-10-16T01:00:14;7.93;;;6.47;;
7845;SDS011;3968;51.424;6.788;2022-10-16T01:02:43;12.53;;;7.77;;
7845;SDS011;3968;51.424;6.788;2022-10-16T01:05:08;15.87;;;7.63;;
7845;SDS011;3968;51.424;6.788;2022-10-16T01:07:37;10.70;;;7.87;;
7845;SDS011;3968;51.424;6.788;2022-10-16T01:10:08;12.77;;;8.27;;
7845;SDS011;3968;51.424;6.788;2022-10-16T01:18:15;11.87;;;8.50;;
7845;SDS011;3968;51.424;6.788;2022-10-16T01:21:03;10.50;;;8.47;;
7845;SDS011;3968;51.424;6.788;2022-10-16T01:26:23;12.40;;;7.90;;
7845;SDS011;3968;51.424;6.788;2022-10-16T01:29:09;9.90;;;7.50;;
7845;SDS011;3968;51.424;6.788;2022-10-16T01:31:59;10.20;;;6.87;;
7845;SDS011;3968;51.424;6.788;2022-10-16T01:34:33;10.20;;;6.90;;
7845;SDS011;3968;51.424;6.788;2022-10-16T01:37:08;7.30;;;6.53;;
7845;SDS011;3968;51.424;6.788;2022-10-16T01:39:38;12.63;;;6.33;;
7845;SDS011;3968;51.424;6.788;2022-10-16T01:44:31;9.23;;;6.87;;
7845;SDS011;3968;51.424;6.788;2022-10-16T01:46:59;10.90;;;7.10;;
7845;SDS011;3968;51.424;6.788;2022-10-16T01:49:26;10.63;;;7.70;;
7845;SDS011;3968;51.424;6.788;2022-10-16T01:51:56;9.50;;;7.37;;
7845;SDS011;3968;51.424;6.788;2022-10-16T01:54:25;9.00;;;7.20;;
7845;SDS011;3968;51.424;6.788;2022-10-16T01:56:55;13.57;;;6.70;;
7845;SDS011;3968;51.424;6.788;2022-10-16T01:59:23;9.47;;;6.83;;
7845;SDS011;3968;51.424;6.788;2022-10-16T02:01:55;11.57;;;7.27;;
7845;SDS011;3968;51.424;6.788;2022-10-16T02:04:31;11.30;;;5.77;;
7845;SDS011;3968;51.424;6.788;2022-10-16T02:07:18;12.40;;;5.53;;
7845;SDS011;3968;51.424;6.788;2022-10-16T02:09:43;5.63;;;4.90;;
7845;SDS011;3968;51.424;6.788;2022-10-16T02:12:31;6.47;;;4.40;;
7845;SDS011;3968;51.424;6.788;2022-10-16T02:14:59;10.63;;;4.90;;
7845;SDS011;3968;51.424;6.788;2022-10-16T02:17:25;4.30;;;3.60;;
7845;SDS011;3968;51.424;6.788;2022-10-16T02:19:52;7.33;;;3.90;;
7845;SDS011;3968;51.424;6.788;2022-10-16T02:27:26;4.77;;;3.33;;
7845;SDS011;3968;51.424;6.788;2022-10-16T02:30:08;5.70;;;3.47;;
7845;SDS011;3968;51.424;6.788;2022-10-16T02:32:49;9.47;;;3.47;;
7845;SDS011;3968;51.424;6.788;2022-10-16T02:35:17;7.20;;;2.80;;
7845;SDS011;3968;51.424;6.788;2022-10-16T02:37:44;4.03;;;2.73;;
7845;SDS011;3968;51.424;6.788;2022-10-16T02:40:12;6.10;;;2.70;;
7845;SDS011;3968;51.424;6.788;2022-10-16T02:42:39;3.63;;;2.73;;
7845;SDS011;3968;51.424;6.788;2022-10-16T02:45:05;3.60;;;2.67;;
7845;SDS011;3968;51.424;6.788;2022-10-16T02:47:32;3.07;;;2.77;;
7845;SDS011;3968;51.424;6.788;2022-10-16T02:49:58;9.30;;;3.07;;
7845;SDS011;3968;51.424;6.788;2022-10-16T02:52:24;5.40;;;2.80;;
7845;SDS011;3968;51.424;6.788;2022-10-16T02:54:49;5.10;;;2.90;;
7845;SDS011;3968;51.424;6.788;2022-10-16T02:57:15;6.23;;;2.30;;
7845;SDS011;3968;51.424;6.788;2022-10-16T02:59:41;5.40;;;2.63;;
7845;SDS011;3968;51.424;6.788;2022-10-16T03:02:06;3.53;;;2.73;;
7845;SDS011;3968;51.424;6.788;2022-10-16T03:04:32;3.97;;;2.43;;
7845;SDS011;3968;51.424;6.788;2022-10-16T03:06:57;2.90;;;2.57;;
7845;SDS011;3968;51.424;6.788;2022-10-16T03:09:23;5.03;;;2.50;;
7845;SDS011;3968;51.424;6.788;2022-10-16T03:11:49;2.50;;;2.10;;
7845;SDS011;3968;51.424;6.788;2022-10-16T03:14:14;3.43;;;2.83;;
7845;SDS011;3968;51.424;6.788;2022-10-16T03:16:40;3.53;;;2.60;;
7845;SDS011;3968;51.424;6.788;2022-10-16T03:19:06;2.57;;;2.33;;
7845;SDS011;3968;51.424;6.788;2022-10-16T03:21:31;4.20;;;2.77;;
7845;SDS011;3968;51.424;6.788;2022-10-16T03:23:57;2.20;;;2.03;;
7845;SDS011;3968;51.424;6.788;2022-10-16T03:26:22;3.13;;;2.30;;
7845;SDS011;3968;51.424;6.788;2022-10-16T03:28:48;2.50;;;2.30;;
7845;SDS011;3968;51.424;6.788;2022-10-16T03:31:14;3.67;;;2.30;;
7845;SDS011;3968;51.424;6.788;2022-10-16T03:33:39;2.97;;;1.97;;
7845;SDS011;3968;51.424;6.788;2022-10-16T03:36:05;3.53;;;2.07;;
7845;SDS011;3968;51.424;6.788;2022-10-16T03:38:31;4.83;;;2.23;;
7845;SDS011;3968;51.424;6.788;2022-10-16T03:40:57;3.43;;;2.30;;
7845;SDS011;3968;51.424;6.788;2022-10-16T03:43:22;6.20;;;2.43;;
7845;SDS011;3968;51.424;6.788;2022-10-16T03:45:50;2.70;;;1.83;;
7845;SDS011;3968;51.424;6.788;2022-10-16T03:48:16;3.00;;;2.03;;
7845;SDS011;3968;51.424;6.788;2022-10-16T03:50:42;3.27;;;2.20;;
7845;SDS011;3968;51.424;6.788;2022-10-16T03:53:08;3.73;;;2.00;;
7845;SDS011;3968;51.424;6.788;2022-10-16T03:55:34;5.67;;;2.40;;
7845;SDS011;3968;51.424;6.788;2022-10-16T03:58:00;3.23;;;2.03;;
7845;SDS011;3968;51.424;6.788;2022-10-16T04:00:26;4.93;;;1.90;;
7845;SDS011;3968;51.424;6.788;2022-10-16T04:02:52;3.53;;;2.20;;
7845;SDS011;3968;51.424;6.788;2022-10-16T04:05:17;5.40;;;2.13;;
7845;SDS011;3968;51.424;6.788;2022-10-16T04:07:43;4.97;;;1.90;;
7845;SDS011;3968;51.424;6.788;2022-10-16T04:10:09;5.97;;;2.00;;
7845;SDS011;3968;51.424;6.788;2022-10-16T04:12:35;2.23;;;1.80;;
7845;SDS011;3968;51.424;6.788;2022-10-16T04:15:00;2.27;;;2.00;;
7845;SDS011;3968;51.424;6.788;2022-10-16T04:17:26;2.57;;;1.93;;
7845;SDS011;3968;51.424;6.788;2022-10-16T04:19:52;1.87;;;1.77;;
7845;SDS011;3968;51.424;6.788;2022-10-16T04:22:17;3.90;;;2.00;;
7845;SDS011;3968;51.424;6.788;2022-10-16T04:24:43;4.57;;;2.00;;
7845;SDS011;3968;51.424;6.788;2022-10-16T04:27:08;4.87;;;2.00;;
7845;SDS011;3968;51.424;6.788;2022-10-16T04:29:34;5.90;;;2.10;;
7845;SDS011;3968;51.424;6.788;2022-10-16T04:32:00;2.73;;;2.10;;
7845;SDS011;3968;51.424;6.788;2022-10-16T04:34:25;3.67;;;2.10;;
7845;SDS011;3968;51.424;6.788;2022-10-16T04:36:51;3.90;;;2.27;;
7845;SDS011;3968;51.424;6.788;2022-10-16T04:39:16;3.20;;;2.10;;
7845;SDS011;3968;51.424;6.788;2022-10-16T04:41:42;2.97;;;2.03;;
7845;SDS011;3968;51.424;6.788;2022-10-16T04:44:08;2.27;;;2.07;;
7845;SDS011;3968;51.424;6.788;2022-10-16T04:46:33;2.10;;;1.80;;
7845;SDS011;3968;51.424;6.788;2022-10-16T04:48:59;3.33;;;2.37;;
7845;SDS011;3968;51.424;6.788;2022-10-16T04:51:25;4.53;;;2.10;;
7845;SDS011;3968;51.424;6.788;2022-10-16T04:53:51;2.20;;;2.00;;
7845;SDS011;3968;51.424;6.788;2022-10-16T04:56:17;2.30;;;2.10;;
7845;SDS011;3968;51.424;6.788;2022-10-16T04:58:43;4.73;;;2.10;;
7845;SDS011;3968;51.424;6.788;2022-10-16T05:01:09;4.30;;;2.13;;
7845;SDS011;3968;51.424;6.788;2022-10-16T05:03:34;4.33;;;2.10;;
7845;SDS011;3968;51.424;6.788;2022-10-16T05:06:00;3.37;;;2.30;;
7845;SDS011;3968;51.424;6.788;2022-10-16T05:08:25;4.27;;;2.07;;
7845;SDS011;3968;51.424;6.788;2022-10-16T05:10:51;4.00;;;2.00;;
7845;SDS011;3968;51.424;6.788;2022-10-16T05:13:17;4.57;;;2.10;;
7845;SDS011;3968;51.424;6.788;2022-10-16T05:15:46;2.17;;;1.87;;
7845;SDS011;3968;51.424;6.788;2022-10-16T05:18:13;2.20;;;2.00;;
7845;SDS011;3968;51.424;6.788;2022-10-16T05:20:38;3.13;;;2.00;;
7845;SDS011;3968;51.424;6.788;2022-10-16T05:23:04;4.47;;;2.00;;
7845;SDS011;3968;51.424;6.788;2022-10-16T05:25:30;4.70;;;2.40;;
7845;SDS011;3968;51.424;6.788;2022-10-16T05:27:55;2.13;;;1.83;;
7845;SDS011;3968;51.424;6.788;2022-10-16T05:30:21;3.17;;;2.20;;
7845;SDS011;3968;51.424;6.788;2022-10-16T05:32:50;2.40;;;2.20;;
7845;SDS011;3968;51.424;6.788;2022-10-16T05:35:16;4.33;;;2.20;;
7845;SDS011;3968;51.424;6.788;2022-10-16T05:37:43;2.77;;;1.83;;
7845;SDS011;3968;51.424;6.788;2022-10-16T05:40:09;4.77;;;1.97;;
7845;SDS011;3968;51.424;6.788;2022-10-16T05:42:35;3.47;;;2.00;;
7845;SDS011;3968;51.424;6.788;2022-10-16T05:45:01;2.13;;;1.83;;
7845;SDS011;3968;51.424;6.788;2022-10-16T05:47:26;8.03;;;2.40;;
7845;SDS011;3968;51.424;6.788;2022-10-16T05:49:52;3.20;;;1.90;;
7845;SDS011;3968;51.424;6.788;2022-10-16T05:52:18;3.17;;;2.00;;
7845;SDS011;3968;51.424;6.788;2022-10-16T05:54:44;7.80;;;2.17;;
7845;SDS011;3968;51.424;6.788;2022-10-16T05:57:09;4.10;;;1.80;;
7845;SDS011;3968;51.424;6.788;2022-10-16T05:59:35;2.13;;;1.93;;
7845;SDS011;3968;51.424;6.788;2022-10-16T06:02:00;5.37;;;2.20;;
7845;SDS011;3968;51.424;6.788;2022-10-16T06:04:26;4.73;;;1.93;;
7845;SDS011;3968;51.424;6.788;2022-10-16T06:06:52;3.37;;;2.40;;
7845;SDS011;3968;51.424;6.788;2022-10-16T06:09:17;2.80;;;2.17;;
7845;SDS011;3968;51.424;6.788;2022-10-16T06:11:43;3.23;;;2.07;;
7845;SDS011;3968;51.424;6.788;2022-10-16T06:14:08;3.13;;;2.47;;
7845;SDS011;3968;51.424;6.788;2022-10-16T06:16:35;4.93;;;2.13;;
7845;SDS011;3968;51.424;6.788;2022-10-16T06:19:02;2.43;;;2.07;;
7845;SDS011;3968;51.424;6.788;2022-10-16T06:21:31;3.27;;;2.10;;
7845;SDS011;3968;51.424;6.788;2022-10-16T06:23:57;3.67;;;2.50;;
7845;SDS011;3968;51.424;6.788;2022-10-16T06:26:24;3.57;;;2.27;;
7845;SDS011;3968;51.424;6.788;2022-10-16T06:28:51;6.03;;;2.33;;
7845;SDS011;3968;51.424;6.788;2022-10-16T06:31:20;3.13;;;2.53;;
7845;SDS011;3968;51.424;6.788;2022-10-16T06:33:49;3.47;;;2.47;;
7845;SDS011;3968;51.424;6.788;2022-10-16T06:36:16;5.83;;;2.30;;
7845;SDS011;3968;51.424;6.788;2022-10-16T06:38:42;3.87;;;2.33;;
7845;SDS011;3968;51.424;6.788;2022-10-16T06:41:09;2.10;;;1.90;;
7845;SDS011;3968;51.424;6.788;2022-10-16T06:43:37;3.07;;;2.40;;
7845;SDS011;3968;51.424;6.788;2022-10-16T06:46:04;3.80;;;2.20;;
7845;SDS011;3968;51.424;6.788;2022-10-16T06:48:32;3.37;;;2.40;;
7845;SDS011;3968;51.424;6.788;2022-10-16T06:50:59;2.40;;;2.20;;
7845;SDS011;3968;51.424;6.788;2022-10-16T06:53:30;5.40;;;2.50;;
7845;SDS011;3968;51.424;6.788;2022-10-16T06:56:06;4.17;;;2.50;;
7845;SDS011;3968;51.424;6.788;2022-10-16T06:58:32;2.97;;;2.70;;
7845;SDS011;3968;51.424;6.788;2022-10-16T07:00:58;3.20;;;2.50;;
7845;SDS011;3968;51.424;6.788;2022-10-16T07:03:23;2.87;;;2.20;;
7845;SDS011;3968;51.424;6.788;2022-10-16T07:05:49;5.77;;;2.37;;
7845;SDS011;3968;51.424;6.788;2022-10-16T07:08:14;4.57;;;2.17;;
7845;SDS011;3968;51.424;6.788;2022-10-16T07:10:40;3.83;;;2.70;;
7845;SDS011;3968;51.424;6.788;2022-10-16T07:13:06;2.30;;;2.07;;
7845;SDS011;3968;51.424;6.788;2022-10-16T07:15:32;5.23;;;2.37;;
7845;SDS011;3968;51.424;6.788;2022-10-16T07:17:59;2.30;;;2.10;;
7845;SDS011;3968;51.424;6.788;2022-10-16T07:20:25;6.77;;;2.30;;
7845;SDS011;3968;51.424;6.788;2022-10-16T07:22:50;5.00;;;2.57;;
7845;SDS011;3968;51.424;6.788;2022-10-16T07:25:17;3.17;;;2.00;;
7845;SDS011;3968;51.424;6.788;2022-10-16T07:27:42;8.43;;;2.30;;
7845;SDS011;3968;51.424;6.788;2022-10-16T07:30:08;3.03;;;2.30;;
7845;SDS011;3968;51.424;6.788;2022-10-16T07:32:34;2.53;;;2.33;;
7845;SDS011;3968;51.424;6.788;2022-10-16T07:34:59;5.43;;;2.20;;
7845;SDS011;3968;51.424;6.788;2022-10-16T07:37:25;2.40;;;2.20;;
7845;SDS011;3968;51.424;6.788;2022-10-16T07:39:51;2.30;;;2.10;;
7845;SDS011;3968;51.424;6.788;2022-10-16T07:42:16;4.07;;;2.40;;
7845;SDS011;3968;51.424;6.788;2022-10-16T07:44:42;3.43;;;2.43;;
7845;SDS011;3968;51.424;6.788;2022-10-16T07:47:09;4.10;;;2.10;;
7845;SDS011;3968;51.424;6.788;2022-10-16T07:49:35;6.47;;;2.07;;
7845;SDS011;3968;51.424;6.788;2022-10-16T07:52:00;3.43;;;2.30;;
7845;SDS011;3968;51.424;6.788;2022-10-16T07:54:26;4.40;;;2.10;;
7845;SDS011;3968;51.424;6.788;2022-10-16T07:56:51;3.17;;;2.00;;
7845;SDS011;3968;51.424;6.788;2022-10-16T07:59:17;3.83;;;2.33;;
7845;SDS011;3968;51.424;6.788;2022-10-16T08:01:42;3.37;;;2.13;;
7845;SDS011;3968;51.424;6.788;2022-10-16T08:04:09;3.50;;;1.93;;
7845;SDS011;3968;51.424;6.788;2022-10-16T08:06:36;4.30;;;2.33;;
7845;SDS011;3968;51.424;6.788;2022-10-16T08:09:03;6.40;;;2.20;;
7845;SDS011;3968;51.424;6.788;2022-10-16T08:11:29;4.80;;;1.90;;
7845;SDS011;3968;51.424;6.788;2022-10-16T08:13:55;6.43;;;2.10;;
7845;SDS011;3968;51.424;6.788;2022-10-16T08:16:20;4.93;;;2.00;;
7845;SDS011;3968;51.424;6.788;2022-10-16T08:18:46;5.45;;;1.88;;
7845;SDS011;3968;51.424;6.788;2022-10-16T08:21:13;4.30;;;1.88;;
7845;SDS011;3968;51.424;6.788;2022-10-16T08:23:41;6.05;;;2.22;;
7845;SDS011;3968;51.424;6.788;2022-10-16T08:26:08;2.85;;;1.83;;
7845;SDS011;3968;51.424;6.788;2022-10-16T08:28:34;13.73;;;2.10;;
7845;SDS011;3968;51.424;6.788;2022-10-16T08:31:13;5.60;;;1.88;;
7845;SDS011;3968;51.424;6.788;2022-10-16T08:33:40;3.47;;;2.10;;
7845;SDS011;3968;51.424;6.788;2022-10-16T08:36:08;4.03;;;2.05;;
7845;SDS011;3968;51.424;6.788;2022-10-16T08:38:35;5.03;;;2.03;;
7845;SDS011;3968;51.424;6.788;2022-10-16T08:41:15;3.03;;;2.00;;
7845;SDS011;3968;51.424;6.788;2022-10-16T08:50:08;4.70;;;2.65;;
7845;SDS011;3968;51.424;6.788;2022-10-16T08:52:38;4.30;;;2.20;;
7845;SDS011;3968;51.424;6.788;2022-10-16T08:55:08;3.08;;;2.00;;
7845;SDS011;3968;51.424;6.788;2022-10-16T08:57:55;4.75;;;1.67;;
7845;SDS011;3968;51.424;6.788;2022-10-16T09:00:21;5.25;;;1.90;;
7845;SDS011;3968;51.424;6.788;2022-10-16T09:02:55;6.28;;;2.20;;
7845;SDS011;3968;51.424;6.788;2022-10-16T09:08:33;7.13;;;2.38;;
7845;SDS011;3968;51.424;6.788;2022-10-16T09:11:18;3.33;;;2.03;;
7845;SDS011;3968;51.424;6.788;2022-10-16T09:13:58;3.08;;;1.60;;
7845;SDS011;3968;51.424;6.788;2022-10-16T09:16:45;3.97;;;1.65;;
7845;SDS011;3968;51.424;6.788;2022-10-16T09:19:17;6.60;;;1.60;;
7845;SDS011;3968;51.424;6.788;2022-10-16T09:21:50;3.42;;;1.60;;
7845;SDS011;3968;51.424;6.788;2022-10-16T09:24:19;6.88;;;1.63;;
7845;SDS011;3968;51.424;6.788;2022-10-16T09:26:46;2.55;;;1.55;;
7845;SDS011;3968;51.424;6.788;2022-10-16T09:29:13;2.40;;;1.25;;
7845;SDS011;3968;51.424;6.788;2022-10-16T09:31:39;5.70;;;1.73;;
7845;SDS011;3968;51.424;6.788;2022-10-16T09:34:06;5.22;;;1.85;;
7845;SDS011;3968;51.424;6.788;2022-10-16T09:36:49;2.75;;;1.20;;
7845;SDS011;3968;51.424;6.788;2022-10-16T09:39:16;2.88;;;1.42;;
7845;SDS011;3968;51.424;6.788;2022-10-16T09:41:42;1.88;;;1.02;;
7845;SDS011;3968;51.424;6.788;2022-10-16T09:44:28;5.60;;;1.33;;
7845;SDS011;3968;51.424;6.788;2022-10-16T09:47:06;2.28;;;1.20;;
7845;SDS011;3968;51.424;6.788;2022-10-16T09:49:49;3.17;;;1.30;;
7845;SDS011;3968;51.424;6.788;2022-10-16T09:52:26;2.17;;;1.10;;
7845;SDS011;3968;51.424;6.788;2022-10-16T09:57:27;3.67;;;1.50;;
7845;SDS011;3968;51.424;6.788;2022-10-16T09:59:56;2.55;;;1.20;;
7845;SDS011;3968;51.424;6.788;2022-10-16T10:02:28;6.70;;;1.42;;
7845;SDS011;3968;51.424;6.788;2022-10-16T10:04:56;3.08;;;1.35;;
7845;SDS011;3968;51.424;6.788;2022-10-16T10:10:03;3.72;;;1.38;;
7845;SDS011;3968;51.424;6.788;2022-10-16T10:12:31;4.30;;;1.50;;
7845;SDS011;3968;51.424;6.788;2022-10-16T10:17:32;4.97;;;1.25;;
7845;SDS011;3968;51.424;6.788;2022-10-16T10:19:59;2.35;;;1.15;;
7845;SDS011;3968;51.424;6.788;2022-10-16T10:25:15;3.10;;;1.10;;
7845;SDS011;3968;51.424;6.788;2022-10-16T10:33:14;4.47;;;1.27;;
7845;SDS011;3968;51.424;6.788;2022-10-16T10:36:05;3.33;;;1.30;;
7845;SDS011;3968;51.424;6.788;2022-10-16T10:41:17;2.75;;;1.30;;
7845;SDS011;3968;51.424;6.788;2022-10-16T10:46:32;3.80;;;1.38;;
7845;SDS011;3968;51.424;6.788;2022-10-16T10:49:16;2.88;;;1.35;;
7845;SDS011;3968;51.424;6.788;2022-10-16T10:57:10;3.03;;;1.50;;
7845;SDS011;3968;51.424;6.788;2022-10-16T10:59:50;2.67;;;1.20;;
7845;SDS011;3968;51.424;6.788;2022-10-16T11:02:37;4.70;;;1.33;;
7845;SDS011;3968;51.424;6.788;2022-10-16T11:08:02;3.33;;;1.40;;
7845;SDS011;3968;51.424;6.788;2022-10-16T11:10:51;3.08;;;1.20;;
7845;SDS011;3968;51.424;6.788;2022-10-16T11:16:22;2.75;;;1.40;;
7845;SDS011;3968;51.424;6.788;2022-10-16T11:18:58;3.90;;;1.73;;
7845;SDS011;3968;51.424;6.788;2022-10-16T11:21:44;5.25;;;1.58;;
7845;SDS011;3968;51.424;6.788;2022-10-16T11:24:19;2.28;;;1.23;;
7845;SDS011;3968;51.424;6.788;2022-10-16T11:26:55;4.10;;;1.58;;
7845;SDS011;3968;51.424;6.788;2022-10-16T11:29:25;3.20;;;1.00;;
7845;SDS011;3968;51.424;6.788;2022-10-16T11:31:59;3.65;;;1.70;;
7845;SDS011;3968;51.424;6.788;2022-10-16T11:34:32;4.63;;;1.67;;
7845;SDS011;3968;51.424;6.788;2022-10-16T11:37:09;4.70;;;1.70;;
7845;SDS011;3968;51.424;6.788;2022-10-16T11:39:35;4.70;;;1.48;;
7845;SDS011;3968;51.424;6.788;2022-10-16T11:42:11;4.03;;;1.95;;
7845;SDS011;3968;51.424;6.788;2022-10-16T11:47:24;4.93;;;1.65;;
7845;SDS011;3968;51.424;6.788;2022-10-16T11:52:53;3.83;;;1.30;;
7845;SDS011;3968;51.424;6.788;2022-10-16T11:55:31;3.15;;;1.27;;
7845;SDS011;3968;51.424;6.788;2022-10-16T11:58:03;2.30;;;1.55;;
7845;SDS011;3968;51.424;6.788;2022-10-16T12:03:56;4.03;;;1.70;;
7845;SDS011;3968;51.424;6.788;2022-10-16T12:08:58;4.45;;;1.25;;
7845;SDS011;3968;51.424;6.788;2022-10-16T12:19:20;5.35;;;1.75;;
7845;SDS011;3968;51.424;6.788;2022-10-16T12:21:48;4.22;;;1.77;;
7845;SDS011;3968;51.424;6.788;2022-10-16T12:24:27;3.30;;;1.38;;
7845;SDS011;3968;51.424;6.788;2022-10-16T12:26:55;2.50;;;1.58;;
7845;SDS011;3968;51.424;6.788;2022-10-16T12:32:52;3.40;;;1.40;;
7845;SDS011;3968;51.424;6.788;2022-10-16T12:34:58;3.85;;;1.60;;
7845;SDS011;3968;51.424;6.788;2022-10-16T12:37:31;6.65;;;1.50;;
7845;SDS011;3968;51.424;6.788;2022-10-16T12:40:11;3.33;;;1.67;;
7845;SDS011;3968;51.424;6.788;2022-10-16T12:42:38;3.67;;;1.20;;
7845;SDS011;3968;51.424;6.788;2022-10-16T12:48:04;5.57;;;1.50;;
7845;SDS011;3968;51.424;6.788;2022-10-16T12:50:43;3.25;;;1.50;;
7845;SDS011;3968;51.424;6.788;2022-10-16T12:53:42;2.47;;;1.35;;
7845;SDS011;3968;51.424;6.788;2022-10-16T13:01:42;5.13;;;1.45;;
7845;SDS011;3968;51.424;6.788;2022-10-16T13:04:31;5.47;;;1.77;;
7845;SDS011;3968;51.424;6.788;2022-10-16T13:09:51;5.00;;;1.60;;
7845;SDS011;3968;51.424;6.788;2022-10-16T13:21:33;4.70;;;1.48;;
7845;SDS011;3968;51.424;6.788;2022-10-16T13:29:46;5.18;;;1.67;;
7845;SDS011;3968;51.424;6.788;2022-10-16T13:32:20;5.43;;;2.35;;
7845;SDS011;3968;51.424;6.788;2022-10-16T13:34:47;5.40;;;1.30;;
7845;SDS011;3968;51.424;6.788;2022-10-16T13:37:17;4.82;;;1.70;;
7845;SDS011;3968;51.424;6.788;2022-10-16T13:39:45;3.70;;;1.38;;
7845;SDS011;3968;51.424;6.788;2022-10-16T13:42:17;3.22;;;1.42;;
7845;SDS011;3968;51.424;6.788;2022-10-16T13:44:52;5.70;;;1.20;;
7845;SDS011;3968;51.424;6.788;2022-10-16T13:47:19;2.25;;;1.17;;
7845;SDS011;3968;51.424;6.788;2022-10-16T13:50:11;3.55;;;1.30;;
7845;SDS011;3968;51.424;6.788;2022-10-16T13:52:36;2.63;;;1.27;;
7845;SDS011;3968;51.424;6.788;2022-10-16T13:55:03;6.00;;;1.40;;
7845;SDS011;3968;51.424;6.788;2022-10-16T13:57:35;5.68;;;1.50;;
7845;SDS011;3968;51.424;6.788;2022-10-16T14:00:00;4.70;;;1.20;;
7845;SDS011;3968;51.424;6.788;2022-10-16T14:02:37;2.13;;;1.20;;
7845;SDS011;3968;51.424;6.788;2022-10-16T14:05:07;4.57;;;1.35;;
7845;SDS011;3968;51.424;6.788;2022-10-16T14:07:35;5.15;;;1.48;;
7845;SDS011;3968;51.424;6.788;2022-10-16T14:10:04;2.38;;;1.20;;
7845;SDS011;3968;51.424;6.788;2022-10-16T14:12:32;3.40;;;1.10;;
7845;SDS011;3968;51.424;6.788;2022-10-16T14:14:58;1.75;;;1.20;;
7845;SDS011;3968;51.424;6.788;2022-10-16T14:19:52;5.10;;;1.50;;
7845;SDS011;3968;51.424;6.788;2022-10-16T14:24:54;2.47;;;1.42;;
7845;SDS011;3968;51.424;6.788;2022-10-16T14:27:26;3.30;;;1.10;;
7845;SDS011;3968;51.424;6.788;2022-10-16T14:32:52;3.25;;;1.60;;
7845;SDS011;3968;51.424;6.788;2022-10-16T14:35:26;2.35;;;1.02;;
7845;SDS011;3968;51.424;6.788;2022-10-16T14:37:54;2.08;;;1.20;;
7845;SDS011;3968;51.424;6.788;2022-10-16T14:40:31;6.05;;;1.55;;
7845;SDS011;3968;51.424;6.788;2022-10-16T14:43:00;3.75;;;1.48;;
7845;SDS011;3968;51.424;6.788;2022-10-16T14:45:28;6.35;;;2.00;;
7845;SDS011;3968;51.424;6.788;2022-10-16T14:48:00;5.13;;;1.58;;
7845;SDS011;3968;51.424;6.788;2022-10-16T14:50:30;4.10;;;1.92;;
7845;SDS011;3968;51.424;6.788;2022-10-16T14:52:55;4.70;;;1.70;;
7845;SDS011;3968;51.424;6.788;2022-10-16T14:55:21;4.55;;;1.80;;
7845;SDS011;3968;51.424;6.788;2022-10-16T14:57:46;5.65;;;2.25;;
7845;SDS011;3968;51.424;6.788;2022-10-16T15:00:21;4.82;;;2.20;;
7845;SDS011;3968;51.424;6.788;2022-10-16T15:02:49;2.75;;;1.83;;
7845;SDS011;3968;51.424;6.788;2022-10-16T15:07:48;6.22;;;2.42;;
7845;SDS011;3968;51.424;6.788;2022-10-16T15:10:15;4.97;;;2.17;;
7845;SDS011;3968;51.424;6.788;2022-10-16T15:12:42;4.60;;;2.20;;
7845;SDS011;3968;51.424;6.788;2022-10-16T15:17:45;6.57;;;1.98;;
7845;SDS011;3968;51.424;6.788;2022-10-16T15:20:11;3.22;;;1.70;;
7845;SDS011;3968;51.424;6.788;2022-10-16T15:22:36;3.90;;;1.90;;
7845;SDS011;3968;51.424;6.788;2022-10-16T15:25:07;6.45;;;4.05;;
7845;SDS011;3968;51.424;6.788;2022-10-16T15:27:48;3.58;;;1.80;;
7845;SDS011;3968;51.424;6.788;2022-10-16T15:30:14;4.95;;;2.05;;
7845;SDS011;3968;51.424;6.788;2022-10-16T15:32:40;9.55;;;5.15;;
7845;SDS011;3968;51.424;6.788;2022-10-16T15:35:08;20.63;;;12.10;;
7845;SDS011;3968;51.424;6.788;2022-10-16T15:37:34;9.52;;;4.20;;
7845;SDS011;3968;51.424;6.788;2022-10-16T15:40:00;5.70;;;2.67;;
7845;SDS011;3968;51.424;6.788;2022-10-16T15:42:26;4.07;;;2.78;;
7845;SDS011;3968;51.424;6.788;2022-10-16T15:44:51;5.25;;;2.63;;
7845;SDS011;3968;51.424;6.788;2022-10-16T15:47:17;5.82;;;2.50;;
7845;SDS011;3968;51.424;6.788;2022-10-16T15:49:42;5.97;;;3.03;;
7845;SDS011;3968;51.424;6.788;2022-10-16T15:52:08;7.95;;;3.55;;
7845;SDS011;3968;51.424;6.788;2022-10-16T15:54:34;11.77;;;7.20;;
7845;SDS011;3968;51.424;6.788;2022-10-16T15:56:59;7.35;;;4.70;;
7845;SDS011;3968;51.424;6.788;2022-10-16T15:59:25;11.35;;;4.97;;
7845;SDS011;3968;51.424;6.788;2022-10-16T16:01:50;8.82;;;5.65;;
7845;SDS011;3968;51.424;6.788;2022-10-16T16:04:16;12.45;;;4.70;;
7845;SDS011;3968;51.424;6.788;2022-10-16T16:06:43;11.20;;;7.20;;
7845;SDS011;3968;51.424;6.788;2022-10-16T16:09:10;7.57;;;4.50;;
7845;SDS011;3968;51.424;6.788;2022-10-16T16:11:36;7.22;;;3.97;;
7845;SDS011;3968;51.424;6.788;2022-10-16T16:14:04;8.05;;;3.28;;
7845;SDS011;3968;51.424;6.788;2022-10-16T16:16:30;9.20;;;2.47;;
7845;SDS011;3968;51.424;6.788;2022-10-16T16:18:58;7.13;;;2.47;;
7845;SDS011;3968;51.424;6.788;2022-10-16T16:21:24;4.80;;;2.63;;
7845;SDS011;3968;51.424;6.788;2022-10-16T16:23:49;4.78;;;2.80;;
7845;SDS011;3968;51.424;6.788;2022-10-16T16:26:21;6.40;;;2.95;;
7845;SDS011;3968;51.424;6.788;2022-10-16T16:28:51;7.97;;;3.80;;
7845;SDS011;3968;51.424;6.788;2022-10-16T16:31:18;6.45;;;3.90;;
7845;SDS011;3968;51.424;6.788;2022-10-16T16:33:45;5.05;;;3.03;;
7845;SDS011;3968;51.424;6.788;2022-10-16T16:36:11;6.30;;;3.00;;
7845;SDS011;3968;51.424;6.788;2022-10-16T16:38:36;5.28;;;2.83;;
7845;SDS011;3968;51.424;6.788;2022-10-16T16:41:12;4.85;;;2.80;;
7845;SDS011;3968;51.424;6.788;2022-10-16T16:43:38;5.05;;;2.90;;
7845;SDS011;3968;51.424;6.788;2022-10-16T16:46:04;6.00;;;2.72;;
7845;SDS011;3968;51.424;6.788;2022-10-16T16:48:30;8.13;;;3.33;;
7845;SDS011;3968;51.424;6.788;2022-10-16T16:51:01;5.68;;;2.80;;
7845;SDS011;3968;51.424;6.788;2022-10-16T16:53:40;3.17;;;2.33;;
7845;SDS011;3968;51.424;6.788;2022-10-16T16:56:06;3.67;;;2.60;;
7845;SDS011;3968;51.424;6.788;2022-10-16T16:58:32;4.38;;;2.92;;
7845;SDS011;3968;51.424;6.788;2022-10-16T17:00:58;11.65;;;8.75;;
7845;SDS011;3968;51.424;6.788;2022-10-16T17:03:27;7.20;;;6.00;;
7845;SDS011;3968;51.424;6.788;2022-10-16T17:06:03;6.78;;;3.00;;
7845;SDS011;3968;51.424;6.788;2022-10-16T17:08:30;8.85;;;5.15;;
7845;SDS011;3968;51.424;6.788;2022-10-16T17:10:56;7.53;;;3.88;;
7845;SDS011;3968;51.424;6.788;2022-10-16T17:13:23;8.45;;;4.22;;
7845;SDS011;3968;51.424;6.788;2022-10-16T17:15:50;8.07;;;4.45;;
7845;SDS011;3968;51.424;6.788;2022-10-16T17:18:16;10.60;;;6.47;;
7845;SDS011;3968;51.424;6.788;2022-10-16T17:20:42;10.68;;;5.93;;
7845;SDS011;3968;51.424;6.788;2022-10-16T17:23:08;13.80;;;4.90;;
7845;SDS011;3968;51.424;6.788;2022-10-16T17:25:36;7.35;;;4.20;;
7845;SDS011;3968;51.424;6.788;2022-10-16T17:28:06;6.97;;;3.65;;